Time;durP1;ratioP1;P1;durP2;ratioP2;P2;SDS_P1;SDS_P2;PMS_P1;PMS_P2;Temp;Humidity;BMP_temperature;BMP_pressure;BME280_temperature;BME280_humidity;BME280_pressure;Samples;Min_cycle;Max_cycle;Signal;HPM_P1;HPM_P2
2023/07/18 00:01:01;;;;;;;1.43;1.33;;;15.80;99.90;;;;;;5033169;28;20650;-69
2023/07/18 00:03:28;;;;;;;2.00;1.83;;;15.70;99.90;;;;;;5033305;28;20171;-70
2023/07/18 00:05:54;;;;;;;1.77;1.43;;;15.50;99.90;;;;;;5033374;28;20167;-70
2023/07/18 00:08:20;;;;;;;1.40;1.33;;;15.70;99.90;;;;;;5033233;28;20487;-69
2023/07/18 00:10:45;;;;;;;0.77;0.77;;;15.60;99.90;;;;;;5033046;28;20776;-70
2023/07/18 00:13:11;;;;;;;1.10;1.00;;;15.30;99.90;;;;;;5033153;28;20284;-69
2023/07/18 00:15:37;;;;;;;4.50;1.67;;;15.50;99.90;;;;;;5033303;28;20181;-70
2023/07/18 00:18:03;;;;;;;2.67;1.37;;;15.50;99.90;;;;;;5032825;28;20246;-70
2023/07/18 00:20:30;;;;;;;3.63;1.33;;;15.50;99.90;;;;;;5033192;28;20539;-69
2023/07/18 00:22:56;;;;;;;0.67;0.67;;;;;;;;;;5032977;28;20412;-70
2023/07/18 00:25:22;;;;;;;2.57;2.37;;;15.30;99.90;;;;;;5032928;28;20415;-69
2023/07/18 00:27:51;;;;;;;0.60;0.60;;;15.50;99.90;;;;;;5033283;28;20428;-70
2023/07/18 00:30:17;;;;;;;1.30;1.20;;;15.60;99.90;;;;;;5032956;28;20258;-69
2023/07/18 00:32:44;;;;;;;0.70;0.70;;;15.30;99.90;;;;;;5032813;28;20417;-70
2023/07/18 00:35:11;;;;;;;1.90;1.27;;;15.30;99.90;;;;;;5032902;28;20777;-69
2023/07/18 00:37:38;;;;;;;2.40;1.83;;;15.40;99.90;;;;;;5032840;28;20462;-69
2023/07/18 00:40:11;;;;;;;0.90;0.60;;;15.50;99.90;;;;;;5033222;28;20464;-70
2023/07/18 00:42:40;;;;;;;1.43;1.43;;;15.50;99.90;;;;;;5032902;28;20458;-70
2023/07/18 00:45:07;;;;;;;1.83;1.73;;;15.10;99.90;;;;;;5033049;28;20877;-70
2023/07/18 00:47:40;;;;;;;1.70;1.53;;;15.30;99.90;;;;;;5032740;28;20854;-70
2023/07/18 00:50:11;;;;;;;1.33;1.00;;;15.30;99.90;;;;;;5032840;28;20415;-70
2023/07/18 00:52:41;;;;;;;0.80;0.80;;;15.20;99.90;;;;;;5032720;28;20403;-70
2023/07/18 00:55:09;;;;;;;0.60;0.60;;;15.10;99.90;;;;;;5032978;28;20413;-70
2023/07/18 00:57:37;;;;;;;1.20;1.10;;;15.20;99.90;;;;;;5032857;28;20429;-69
2023/07/18 01:00:09;;;;;;;2.00;1.90;;;15.20;99.90;;;;;;5014896;28;20780;-69
2023/07/18 01:02:36;;;;;;;1.40;0.83;;;15.30;99.90;;;;;;5032805;28;20762;-69
2023/07/18 01:05:02;;;;;;;2.20;1.23;;;15.50;99.90;;;;;;5036377;28;20423;-69
2023/07/18 01:07:27;;;;;;;1.63;1.53;;;15.60;99.90;;;;;;5036400;28;20432;-70
2023/07/18 01:09:53;;;;;;;4.93;1.53;;;15.80;99.90;;;;;;5036109;28;20407;-70
2023/07/18 01:12:19;;;;;;;4.63;2.30;;;15.60;99.90;;;;;;5036004;28;20320;-70
2023/07/18 01:14:45;;;;;;;2.20;1.77;;;15.80;99.90;;;;;;5036086;28;20178;-70
2023/07/18 01:17:12;;;;;;;0.87;0.87;;;15.80;99.90;;;;;;5036032;28;20516;-69
2023/07/18 01:19:38;;;;;;;2.10;1.27;;;15.60;99.90;;;;;;5035978;28;20790;-70
2023/07/18 01:22:04;;;;;;;1.23;1.17;;;16.00;99.90;;;;;;5035857;28;20595;-70
2023/07/18 01:24:29;;;;;;;2.53;1.13;;;15.70;99.90;;;;;;5035960;28;20246;-69
2023/07/18 01:26:55;;;;;;;1.17;1.10;;;15.70;99.90;;;;;;5036015;28;20436;-70
2023/07/18 01:29:20;;;;;;;5.43;2.40;;;15.70;99.90;;;;;;5036063;28;20182;-70
2023/07/18 01:31:48;;;;;;;2.83;1.23;;;15.70;99.90;;;;;;5035583;28;20193;-70
2023/07/18 01:34:14;;;;;;;2.27;1.93;;;15.70;99.90;;;;;;5035775;28;20244;-69
2023/07/18 01:36:40;;;;;;;0.50;0.50;;;15.70;99.90;;;;;;5035934;28;20406;-69
2023/07/18 01:39:08;;;;;;;1.53;1.43;;;15.70;99.90;;;;;;5035622;28;20506;-69
2023/07/18 01:41:33;;;;;;;2.93;1.03;;;15.70;99.90;;;;;;5035284;28;20550;-69
2023/07/18 01:43:59;;;;;;;2.10;2.00;;;15.80;99.90;;;;;;5035489;28;20445;-69
2023/07/18 01:46:25;;;;;;;1.07;0.87;;;15.90;99.90;;;;;;5035642;28;20617;-69
2023/07/18 01:48:50;;;;;;;2.30;2.10;;;15.90;99.90;;;;;;5017732;28;20205;-70
2023/07/18 01:51:16;;;;;;;1.13;1.03;;;;;;;;;;5035404;28;20260;-69
2023/07/18 01:53:42;;;;;;;3.10;1.30;;;15.90;99.90;;;;;;5017641;28;20603;-70
2023/07/18 01:56:07;;;;;;;1.27;1.23;;;15.70;99.90;;;;;;5035462;28;20409;-70
2023/07/18 01:58:33;;;;;;;0.63;0.63;;;15.70;99.90;;;;;;5035231;28;20205;-69
2023/07/18 02:01:03;;;;;;;0.60;0.60;;;15.70;99.90;;;;;;5035432;28;20203;-70
2023/07/18 02:03:28;;;;;;;1.33;0.73;;;15.50;99.90;;;;;;5035468;28;20619;-69
2023/07/18 02:05:54;;;;;;;1.03;1.03;;;;;;;;;;5035121;28;20423;-69
2023/07/18 02:08:20;;;;;;;0.87;0.87;;;15.20;99.90;;;;;;5035237;28;20200;-70
2023/07/18 02:10:45;;;;;;;1.37;0.60;;;15.20;99.90;;;;;;5034973;28;20414;-70
2023/07/18 02:13:11;;;;;;;1.00;1.00;;;15.20;99.90;;;;;;5035070;28;20174;-69
2023/07/18 02:15:37;;;;;;;1.60;1.50;;;15.20;99.90;;;;;;5034912;28;20179;-70
2023/07/18 02:18:02;;;;;;;1.07;1.07;;;15.10;99.90;;;;;;5034762;28;20214;-70
2023/07/18 02:20:28;;;;;;;1.50;1.40;;;15.40;99.90;;;;;;5034963;28;20226;-70
2023/07/18 02:22:55;;;;;;;0.70;0.70;;;15.30;99.90;;;;;;5034896;28;20178;-69
2023/07/18 02:25:21;;;;;;;1.17;1.03;;;15.30;99.90;;;;;;5034784;28;20178;-69
2023/07/18 02:27:47;;;;;;;16.33;2.07;;;15.20;99.90;;;;;;5034877;28;20508;-69
2023/07/18 02:30:14;;;;;;;0.60;0.60;;;15.00;99.90;;;;;;5017003;28;20592;-70
2023/07/18 02:32:41;;;;;;;1.50;1.13;;;15.20;99.90;;;;;;5016795;28;20666;-70
2023/07/18 02:35:08;;;;;;;1.63;1.60;;;15.20;99.90;;;;;;5034695;28;20464;-69
2023/07/18 02:37:34;;;;;;;1.33;1.03;;;;;;;;;;5034561;28;20862;-69
2023/07/18 02:40:00;;;;;;;1.47;1.37;;;15.50;99.90;;;;;;5034340;28;20556;-69
2023/07/18 02:42:26;;;;;;;1.37;1.00;;;15.10;99.90;;;;;;5034271;28;20472;-70
2023/07/18 02:44:51;;;;;;;0.47;0.47;;;15.20;99.90;;;;;;5034495;28;20403;-70
2023/07/18 02:47:17;;;;;;;1.80;1.30;;;15.20;99.90;;;;;;5016513;28;20202;-70
2023/07/18 02:49:42;;;;;;;1.60;1.47;;;15.20;99.90;;;;;;5034350;28;20177;-70
2023/07/18 02:52:08;;;;;;;3.50;1.77;;;15.20;99.90;;;;;;5034125;28;20623;-70
2023/07/18 02:54:34;;;;;;;2.43;2.33;;;15.10;99.90;;;;;;5034259;28;20254;-70
2023/07/18 02:57:00;;;;;;;0.97;0.97;;;;;;;;;;5034143;28;20205;-69
2023/07/18 02:59:26;;;;;;;2.60;0.73;;;15.20;99.90;;;;;;5034146;28;20261;-69
2023/07/18 03:01:59;;;;;;;0.50;0.50;;;15.20;99.90;;;;;;5033939;28;20544;-69
2023/07/18 03:04:26;;;;;;;0.93;0.93;;;15.10;99.90;;;;;;5034381;28;20174;-70
2023/07/18 03:06:53;;;;;;;2.03;1.70;;;15.20;99.90;;;;;;5034166;28;20428;-70
2023/07/18 03:09:19;;;;;;;1.60;0.73;;;15.10;99.90;;;;;;5033920;28;20906;-70
2023/07/18 03:11:46;;;;;;;1.90;1.27;;;15.20;99.90;;;;;;5033703;28;20405;-70
2023/07/18 03:14:12;;;;;;;2.97;2.83;;;15.20;99.90;;;;;;5033982;28;20411;-69
2023/07/18 03:16:38;;;;;;;3.43;1.17;;;15.50;99.90;;;;;;5033927;28;20418;-70
2023/07/18 03:19:05;;;;;;;1.50;1.00;;;15.20;99.90;;;;;;5033716;28;20210;-69
2023/07/18 03:21:31;;;;;;;1.10;1.00;;;15.10;99.90;;;;;;5033596;28;20453;-69
2023/07/18 03:23:57;;;;;;;2.27;2.03;;;15.10;99.90;;;;;;5033716;28;20468;-69
2023/07/18 03:26:23;;;;;;;2.83;1.50;;;;;;;;;;5033493;28;20187;-70
2023/07/18 03:28:49;;;;;;;1.53;1.40;;;15.10;99.90;;;;;;5033542;28;20965;-70
2023/07/18 03:31:15;;;;;;;1.37;1.27;;;14.10;99.90;;;;;;5033623;28;20405;-70
2023/07/18 03:33:41;;;;;;;1.13;0.60;;;14.90;99.90;;;;;;5033593;28;20261;-70
2023/07/18 03:36:07;;;;;;;1.30;1.10;;;15.00;99.90;;;;;;5033671;28;20410;-69
2023/07/18 03:38:32;;;;;;;2.20;0.90;;;14.80;99.90;;;;;;5032968;28;20447;-70
2023/07/18 03:40:58;;;;;;;0.50;0.50;;;14.90;99.90;;;;;;5033388;28;20682;-70
2023/07/18 03:43:24;;;;;;;0.50;0.50;;;15.00;99.90;;;;;;5033282;28;20622;-70
2023/07/18 03:45:51;;;;;;;0.80;0.80;;;15.00;99.90;;;;;;5033831;28;20424;-69
2023/07/18 03:48:17;;;;;;;1.03;1.03;;;15.00;99.90;;;;;;5033338;28;20527;-69
2023/07/18 03:50:43;;;;;;;0.40;0.40;;;15.50;99.90;;;;;;5033243;28;20506;-70
2023/07/18 03:53:08;;;;;;;1.10;1.10;;;15.20;99.90;;;;;;5033234;28;20420;-69
2023/07/18 03:55:34;;;;;;;0.90;0.60;;;15.20;99.90;;;;;;5033484;28;20420;-69
2023/07/18 03:58:00;;;;;;;0.60;0.47;;;15.20;99.90;;;;;;5033352;28;20277;-69
2023/07/18 04:00:26;;;;;;;0.67;0.60;;;15.20;99.90;;;;;;5033193;28;20198;-70
2023/07/18 04:02:52;;;;;;;1.63;1.60;;;15.40;99.90;;;;;;5033154;28;20167;-69
2023/07/18 04:05:18;;;;;;;5.67;2.27;;;15.20;99.90;;;;;;5033445;28;20401;-69
2023/07/18 04:07:44;;;;;;;0.50;0.50;;;15.20;99.90;;;;;;5033379;28;20220;-69
2023/07/18 04:10:13;;;;;;;1.80;1.63;;;15.00;99.90;;;;;;5033408;28;20441;-69
2023/07/18 04:12:42;;;;;;;0.70;0.70;;;15.10;99.90;;;;;;5032901;28;20417;-70
2023/07/18 04:15:08;;;;;;;1.27;1.17;;;15.10;99.90;;;;;;5033197;28;20402;-69
2023/07/18 04:17:34;;;;;;;0.70;0.70;;;15.20;99.90;;;;;;5033055;28;20446;-69
2023/07/18 04:20:00;;;;;;;0.80;0.80;;;15.20;99.90;;;;;;5033164;28;20421;-70
2023/07/18 04:22:26;;;;;;;1.90;0.83;;;15.20;99.90;;;;;;5033011;28;20187;-70
2023/07/18 04:24:55;;;;;;;0.53;0.50;;;15.30;99.90;;;;;;5033228;28;20191;-69
2023/07/18 04:27:21;;;;;;;0.60;0.60;;;15.40;99.90;;;;;;5033153;28;20446;-70
2023/07/18 04:29:47;;;;;;;1.03;0.60;;;15.40;99.90;;;;;;5033007;28;20423;-70
2023/07/18 04:32:13;;;;;;;0.70;0.70;;;15.20;99.90;;;;;;5032797;28;20861;-72
2023/07/18 04:34:38;;;;;;;1.37;1.37;;;15.50;99.90;;;;;;5015339;28;20419;-69
2023/07/18 04:37:04;;;;;;;2.23;1.20;;;15.50;99.90;;;;;;5032957;28;20190;-69
2023/07/18 04:39:30;;;;;;;0.80;0.80;;;15.30;99.90;;;;;;5036060;28;20176;-69
2023/07/18 04:41:56;;;;;;;0.97;0.97;;;15.50;99.90;;;;;;5036501;28;20195;-70
2023/07/18 04:44:25;;;;;;;1.13;1.13;;;15.40;99.90;;;;;;5036650;28;20171;-70
2023/07/18 04:46:54;;;;;;;0.77;0.77;;;;;;;;;;5036584;28;20487;-69
2023/07/18 04:49:22;;;;;;;0.60;0.60;;;15.80;99.90;;;;;;5036580;28;20406;-70
2023/07/18 04:51:48;;;;;;;0.80;0.80;;;15.90;99.90;;;;;;5036426;28;20421;-69
2023/07/18 04:54:13;;;;;;;0.90;0.90;;;16.80;99.90;;;;;;5036630;28;20406;-70
2023/07/18 04:56:39;;;;;;;1.57;1.47;;;16.50;99.90;;;;;;5036335;28;20889;-70
2023/07/18 04:59:05;;;;;;;1.37;1.33;;;16.50;99.90;;;;;;5036444;28;20216;-69
2023/07/18 05:01:31;;;;;;;3.60;1.17;;;16.90;99.90;;;;;;5036077;28;20518;-69
2023/07/18 05:03:58;;;;;;;1.63;0.97;;;17.00;99.90;;;;;;5036361;28;20410;-70
2023/07/18 05:06:24;;;;;;;0.67;0.57;;;17.20;99.90;;;;;;5036401;28;20171;-69
2023/07/18 05:08:49;;;;;;;1.13;1.13;;;17.10;99.30;;;;;;5036082;28;20429;-70
2023/07/18 05:11:16;;;;;;;0.70;0.70;;;17.20;99.90;;;;;;5036175;28;20921;-70
2023/07/18 05:13:42;;;;;;;1.87;1.47;;;17.30;99.40;;;;;;5036254;28;20217;-70
2023/07/18 05:16:08;;;;;;;1.13;1.00;;;17.30;99.60;;;;;;5036134;28;20406;-70
2023/07/18 05:18:33;;;;;;;0.50;0.50;;;17.40;99.30;;;;;;5035883;28;20257;-69
2023/07/18 05:20:59;;;;;;;0.70;0.70;;;17.50;99.90;;;;;;5035902;28;20206;-70
2023/07/18 05:23:25;;;;;;;0.77;0.77;;;17.70;99.90;;;;;;5035943;28;20686;-70
2023/07/18 05:25:50;;;;;;;1.83;1.43;;;17.90;99.80;;;;;;5035871;28;20579;-70
2023/07/18 05:28:16;;;;;;;2.13;1.50;;;18.10;99.20;;;;;;5036047;28;20191;-70
2023/07/18 05:30:42;;;;;;;1.23;1.20;;;18.20;99.60;;;;;;5035536;28;20179;-70
2023/07/18 05:33:08;;;;;;;1.60;1.50;;;18.30;98.60;;;;;;5035808;28;20175;-70
2023/07/18 05:35:34;;;;;;;3.53;0.97;;;18.20;98.10;;;;;;5035888;28;20203;-70
2023/07/18 05:38:01;;;;;;;1.43;0.77;;;18.20;98.10;;;;;;5035509;28;20512;-70
2023/07/18 05:40:27;;;;;;;1.40;1.30;;;18.30;98.60;;;;;;5035700;28;20532;-70
2023/07/18 05:42:53;;;;;;;0.97;0.80;;;18.70;99.00;;;;;;5017767;28;20416;-70
2023/07/18 05:45:19;;;;;;;0.90;0.90;;;19.20;99.00;;;;;;5035599;28;20434;-70
2023/07/18 05:47:45;;;;;;;0.77;0.77;;;20.00;99.90;;;;;;5035369;28;20485;-70
2023/07/18 05:50:11;;;;;;;0.50;0.50;;;19.70;98.30;;;;;;5035194;28;20652;-70
2023/07/18 05:52:36;;;;;;;0.80;0.80;;;20.10;97.90;;;;;;5035218;28;20179;-70
2023/07/18 05:55:04;;;;;;;10.03;2.47;;;20.20;96.70;;;;;;5035411;28;20797;-70
2023/07/18 05:57:29;;;;;;;2.40;0.93;;;20.50;95.90;;;;;;5035646;28;20203;-70
2023/07/18 05:59:55;;;;;;;2.73;0.97;;;21.10;95.40;;;;;;5035301;28;20408;-70
2023/07/18 06:02:21;;;;;;;0.40;0.40;;;22.00;94.20;;;;;;5035150;28;20212;-70
2023/07/18 06:04:47;;;;;;;0.57;0.53;;;22.40;93.10;;;;;;5035422;28;20174;-70
2023/07/18 06:07:14;;;;;;;0.63;0.50;;;;;;;;;;5035079;28;20789;-70
2023/07/18 06:09:39;;;;;;;1.00;0.97;;;22.70;91.10;;;;;;5035279;28;20405;-70
2023/07/18 06:12:06;;;;;;;1.13;1.03;;;22.90;91.90;;;;;;5035060;28;20417;-70
2023/07/18 06:14:33;;;;;;;3.20;1.50;;;23.10;89.90;;;;;;5034931;28;20191;-70
2023/07/18 06:16:58;;;;;;;1.23;0.70;;;23.30;89.10;;;;;;5035027;28;20891;-71
2023/07/18 06:19:24;;;;;;;0.60;0.60;;;23.40;89.80;;;;;;5034864;28;20468;-70
2023/07/18 06:21:50;;;;;;;0.50;0.50;;;23.90;90.00;;;;;;5034682;28;20232;-70
2023/07/18 06:24:16;;;;;;;0.60;0.60;;;;;;;;;;5034776;28;20630;-70
2023/07/18 06:26:48;;;;;;;0.70;0.60;;;25.90;99.90;;;;;;5034715;28;20177;-71
2023/07/18 06:29:18;;;;;;;0.97;0.83;;;25.70;83.80;;;;;;5034920;28;20375;-70
2023/07/18 06:31:45;;;;;;;0.40;0.40;;;26.30;78.20;;;;;;5034558;28;20920;-70
2023/07/18 06:34:11;;;;;;;2.90;0.73;;;26.30;79.00;;;;;;5015085;28;20400;-70
2023/07/18 06:36:36;;;;;;;0.60;0.60;;;27.20;94.20;;;;;;5033124;28;20396;-71
2023/07/18 06:39:03;;;;;;;1.10;1.00;;;27.20;76.10;;;;;;5033630;28;20190;-71
2023/07/18 06:41:29;;;;;;;0.77;0.73;;;28.10;74.20;;;;;;5034199;28;20289;-71
2023/07/18 06:43:54;;;;;;;2.90;1.80;;;29.40;71.00;;;;;;5034518;28;20440;-71
2023/07/18 06:46:21;;;;;;;0.80;0.77;;;30.80;66.10;;;;;;5017137;28;20699;-71
2023/07/18 06:48:47;;;;;;;1.00;1.00;;;32.00;60.80;;;;;;5034250;28;20728;-71
2023/07/18 06:51:14;;;;;;;7.13;1.33;;;33.00;57.70;;;;;;5034321;28;20406;-71
2023/07/18 06:53:40;;;;;;;1.43;0.90;;;33.50;54.20;;;;;;5034330;28;20176;-71
2023/07/18 06:56:06;;;;;;;0.97;0.80;;;33.80;52.80;;;;;;5034295;28;20501;-71
2023/07/18 06:58:31;;;;;;;1.30;1.00;;;33.10;68.50;;;;;;5034118;28;20194;-71
2023/07/18 07:00:57;;;;;;;1.10;1.00;;;33.20;51.30;;;;;;5033195;28;20460;-71
2023/07/18 07:03:23;;;;;;;1.13;1.03;;;32.60;51.30;;;;;;5034022;28;20550;-71
2023/07/18 07:05:48;;;;;;;1.90;0.93;;;32.00;52.20;;;;;;5034434;28;20186;-72
2023/07/18 07:08:18;;;;;;;1.23;0.83;;;31.50;51.80;;;;;;5033980;28;20186;-71
2023/07/18 07:10:44;;;;;;;0.60;0.60;;;31.60;53.40;;;;;;5034030;28;20175;-71
2023/07/18 07:13:12;;;;;;;1.37;1.23;;;31.60;53.20;;;;;;5033984;28;20501;-71
2023/07/18 07:15:37;;;;;;;0.80;0.80;;;31.50;53.90;;;;;;5034023;28;20402;-71
2023/07/18 07:18:03;;;;;;;1.37;0.83;;;30.50;52.10;;;;;;5033721;28;20460;-71
2023/07/18 07:20:33;;;;;;;3.87;0.70;;;30.10;52.70;;;;;;5034161;28;20194;-71
2023/07/18 07:22:59;;;;;;;1.13;0.80;;;29.60;55.00;;;;;;5033639;28;20406;-71
2023/07/18 07:25:30;;;;;;;1.57;1.47;;;29.40;55.40;;;;;;5033644;28;20409;-71
2023/07/18 07:27:56;;;;;;;0.83;0.83;;;29.20;56.00;;;;;;5033551;28;20426;-71
2023/07/18 07:30:22;;;;;;;4.90;1.40;;;28.70;54.00;;;;;;5033177;28;20437;-71
2023/07/18 07:32:51;;;;;;;0.50;0.50;;;28.10;54.80;;;;;;5032429;28;20441;-71
2023/07/18 07:35:18;;;;;;;1.00;0.83;;;27.80;59.30;;;;;;5033619;28;20175;-71
2023/07/18 07:37:44;;;;;;;1.13;0.70;;;27.80;57.70;;;;;;5033452;28;20427;-71
2023/07/18 07:40:11;;;;;;;1.40;1.07;;;27.80;58.50;;;;;;5034008;28;20413;-71
2023/07/18 07:42:38;;;;;;;1.03;0.93;;;28.20;58.00;;;;;;5033551;28;20898;-71
2023/07/18 07:45:04;;;;;;;1.30;1.20;;;28.60;55.50;;;;;;5033346;28;20401;-71
2023/07/18 07:47:30;;;;;;;1.13;1.03;;;29.30;53.80;;;;;;5033700;28;21004;-71
2023/07/18 07:49:56;;;;;;;1.57;1.20;;;30.30;54.60;;;;;;5033291;28;20484;-72
2023/07/18 07:52:21;;;;;;;0.87;0.87;;;31.80;53.90;;;;;;5033056;28;20183;-72
2023/07/18 07:54:48;;;;;;;0.60;0.60;;;33.40;50.30;;;;;;5033398;28;20301;-71
2023/07/18 07:57:14;;;;;;;1.93;1.27;;;;;;;;;;5033241;28;20607;-72
2023/07/18 07:59:40;;;;;;;1.13;0.90;;;36.50;44.80;;;;;;5033162;28;20405;-72
2023/07/18 08:02:06;;;;;;;1.17;0.73;;;37.50;43.50;;;;;;5015252;28;21072;-72
2023/07/18 08:04:32;;;;;;;0.80;0.80;;;38.40;40.70;;;;;;5033205;28;20485;-72
2023/07/18 08:06:58;;;;;;;1.13;1.13;;;39.10;40.90;;;;;;5033227;28;20197;-71
2023/07/18 08:09:23;;;;;;;1.33;1.23;;;39.90;38.50;;;;;;5033275;28;20250;-72
2023/07/18 08:11:50;;;;;;;0.73;0.73;;;40.70;37.70;;;;;;5033578;28;20183;-72
2023/07/18 08:14:17;;;;;;;1.53;1.40;;;41.10;34.90;;;;;;5037376;28;20270;-72
2023/07/18 08:16:43;;;;;;;0.80;0.80;;;40.20;52.80;;;;;;5037071;28;20471;-71
2023/07/18 08:19:09;;;;;;;0.90;0.80;;;39.80;34.90;;;;;;5036973;28;20429;-72
2023/07/18 08:21:34;;;;;;;1.53;1.27;;;39.30;36.50;;;;;;5037028;28;20194;-71
2023/07/18 08:24:01;;;;;;;0.90;0.90;;;38.70;35.80;;;;;;5037173;28;20397;-71
2023/07/18 08:26:26;;;;;;;1.53;1.03;;;38.60;36.30;;;;;;5037211;28;20167;-72
2023/07/18 08:28:52;;;;;;;1.30;1.20;;;39.10;37.90;;;;;;5036881;28;20482;-72
2023/07/18 08:31:19;;;;;;;1.20;1.10;;;39.90;37.30;;;;;;5037062;28;20208;-71
2023/07/18 08:33:45;;;;;;;0.90;0.90;;;40.50;36.70;;;;;;5036928;28;20173;-72
2023/07/18 08:36:10;;;;;;;1.50;1.00;;;41.10;34.80;;;;;;5036830;28;20401;-72
2023/07/18 08:38:37;;;;;;;1.30;0.97;;;41.50;34.00;;;;;;5036706;28;21004;-72
2023/07/18 08:41:03;;;;;;;1.90;1.20;;;41.00;33.50;;;;;;5036785;28;20175;-72
2023/07/18 08:43:31;;;;;;;0.87;0.87;;;40.20;34.80;;;;;;5036701;28;20416;-72
2023/07/18 08:45:57;;;;;;;1.60;0.70;;;40.20;35.00;;;;;;5035046;28;20819;-73
2023/07/18 08:48:24;;;;;;;1.23;1.00;;;40.40;33.80;;;;;;5036823;28;20440;-73
2023/07/18 08:50:53;;;;;;;1.47;1.10;;;40.70;34.20;;;;;;5036493;28;20457;-72
2023/07/18 08:53:19;;;;;;;3.40;1.27;;;40.90;35.00;;;;;;5036601;28;20424;-73
2023/07/18 08:55:45;;;;;;;2.83;1.00;;;41.30;34.10;;;;;;5036616;28;20844;-73
2023/07/18 08:58:11;;;;;;;1.10;1.00;;;41.60;32.70;;;;;;5036539;28;20425;-72
2023/07/18 09:00:37;;;;;;;0.97;0.80;;;41.50;34.20;;;;;;5036520;28;20410;-72
2023/07/18 09:03:02;;;;;;;1.67;0.93;;;40.50;32.70;;;;;;5036463;28;20408;-72
2023/07/18 09:05:34;;;;;;;1.93;1.03;;;41.10;35.30;;;;;;5036603;28;20182;-72
2023/07/18 09:08:01;;;;;;;1.13;0.87;;;41.60;32.60;;;;;;5036231;28;20211;-73
2023/07/18 09:10:27;;;;;;;1.20;0.93;;;41.70;33.20;;;;;;5035112;28;20405;-73
2023/07/18 09:12:53;;;;;;;1.10;1.00;;;41.40;33.90;;;;;;5034989;28;20417;-72
2023/07/18 09:15:20;;;;;;;0.83;0.83;;;41.00;34.10;;;;;;5035233;28;20195;-72
2023/07/18 09:18:00;;;;;;;1.43;1.30;;;40.50;34.10;;;;;;5017960;28;20828;-71
2023/07/18 09:20:27;;;;;;;1.47;1.20;;;39.20;35.30;;;;;;5035157;28;20920;-72
2023/07/18 09:23:04;;;;;;;1.10;1.00;;;37.90;37.20;;;;;;5035817;28;20409;-72
2023/07/18 09:25:30;;;;;;;1.87;1.57;;;36.70;40.90;;;;;;5035432;28;20402;-72
2023/07/18 09:27:57;;;;;;;1.47;0.80;;;35.70;41.30;;;;;;5036220;28;20763;-71
2023/07/18 09:30:35;;;;;;;1.57;1.47;;;34.40;41.70;;;;;;5035862;28;20406;-72
2023/07/18 09:33:05;;;;;;;1.63;1.30;;;32.90;46.10;;;;;;5036214;28;20798;-71
2023/07/18 09:35:36;;;;;;;2.20;1.20;;;31.40;49.50;;;;;;5036371;28;20492;-71
2023/07/18 09:38:02;;;;;;;1.30;1.20;;;30.60;51.40;;;;;;5036089;28;20429;-72
2023/07/18 09:40:28;;;;;;;1.17;1.07;;;30.00;51.80;;;;;;5036228;28;20440;-71
2023/07/18 09:42:54;;;;;;;1.03;0.90;;;29.30;56.00;;;;;;5035808;28;20406;-71
2023/07/18 09:45:20;;;;;;;1.03;0.93;;;28.40;57.70;;;;;;5035964;28;20225;-71
2023/07/18 09:47:46;;;;;;;1.63;1.53;;;27.50;59.80;;;;;;5035632;28;20430;-71
2023/07/18 09:50:13;;;;;;;1.40;1.30;;;26.10;68.30;;;;;;5035507;28;20758;-71
2023/07/18 09:52:50;;;;;;;1.43;1.33;;;25.60;71.70;;;;;;5034796;28;20202;-71
2023/07/18 09:55:27;;;;;;;1.70;1.07;;;25.60;72.80;;;;;;5035661;28;21013;-71
2023/07/18 09:57:55;;;;;;;1.03;0.90;;;26.10;78.80;;;;;;5035392;28;20464;-71
2023/07/18 10:00:22;;;;;;;1.37;1.00;;;27.80;70.00;;;;;;5035241;28;20422;-71
2023/07/18 10:02:49;;;;;;;1.23;0.97;;;29.60;62.60;;;;;;5034781;28;20452;-71
2023/07/18 10:05:15;;;;;;;2.97;1.87;;;31.30;60.70;;;;;;5034989;28;20501;-71
2023/07/18 10:07:43;;;;;;;0.97;0.97;;;32.90;53.50;;;;;;5034867;28;20441;-71
2023/07/18 10:10:11;;;;;;;4.43;1.20;;;34.20;47.40;;;;;;5035013;28;20421;-71
2023/07/18 10:12:58;;;;;;;1.90;1.70;;;35.00;47.10;;;;;;5034593;28;20458;-72
2023/07/18 10:15:24;;;;;;;1.60;1.13;;;35.60;47.60;;;;;;5034593;28;20418;-71
2023/07/18 10:17:50;;;;;;;1.37;1.27;;;35.60;46.20;;;;;;5034393;28;20457;-71
2023/07/18 10:20:34;;;;;;;1.87;1.13;;;35.50;45.20;;;;;;5035396;28;20397;-72
2023/07/18 10:23:00;;;;;;;1.13;1.03;;;35.40;44.30;;;;;;5034919;28;20301;-71
2023/07/18 10:25:28;;;;;;;1.20;1.07;;;34.80;46.80;;;;;;5034626;28;20497;-71
2023/07/18 10:27:54;;;;;;;4.80;2.10;;;34.10;48.80;;;;;;5033432;28;20191;-71
2023/07/18 10:30:21;;;;;;;1.67;1.57;;;33.30;48.80;;;;;;5034208;28;20413;-71
2023/07/18 10:32:54;;;;;;;1.60;1.50;;;32.20;49.00;;;;;;5034366;28;20445;-71
2023/07/18 10:35:27;;;;;;;1.43;1.10;;;30.00;56.10;;;;;;5034756;28;20783;-70
2023/07/18 10:37:55;;;;;;;1.10;1.00;;;29.40;57.70;;;;;;5034613;28;20429;-71
2023/07/18 10:40:39;;;;;;;1.70;1.60;;;28.80;64.10;;;;;;5034682;28;20468;-71
2023/07/18 10:43:16;;;;;;;1.33;1.23;;;27.10;71.30;;;;;;5034500;28;20409;-70
2023/07/18 10:45:42;;;;;;;1.40;1.30;;;25.50;81.70;;;;;;5034480;28;20405;-70
2023/07/18 10:48:19;;;;;;;2.00;1.87;;;24.70;91.20;;;;;;5034442;28;20422;-71
2023/07/18 10:50:47;;;;;;;1.30;1.20;;;24.10;95.80;;;;;;5034080;28;20434;-70
2023/07/18 10:53:15;;;;;;;0.83;0.80;;;23.60;98.00;;;;;;5034449;28;20791;-70
2023/07/18 10:55:41;;;;;;;1.30;1.20;;;23.40;97.90;;;;;;5034418;28;20723;-70
2023/07/18 10:58:15;;;;;;;0.83;0.83;;;23.10;97.70;;;;;;5034129;28;20421;-70
2023/07/18 11:00:41;;;;;;;1.80;1.20;;;22.90;99.70;;;;;;5034207;28;20950;-70
2023/07/18 11:03:17;;;;;;;1.03;1.03;;;22.60;99.90;;;;;;5034237;28;20893;-71
2023/07/18 11:05:47;;;;;;;1.47;0.93;;;22.50;99.90;;;;;;5034074;28;20414;-70
2023/07/18 11:08:31;;;;;;;1.13;1.03;;;22.10;99.90;;;;;;5034051;28;20432;-70
2023/07/18 11:10:58;;;;;;;1.23;1.13;;;22.00;99.90;;;;;;5033842;28;20960;-70
2023/07/18 11:13:32;;;;;;;1.23;1.13;;;21.70;99.90;;;;;;5034054;28;20409;-70
2023/07/18 11:16:04;;;;;;;3.10;2.90;;;21.40;99.90;;;;;;5034104;28;20408;-70
2023/07/18 11:18:34;;;;;;;0.97;0.90;;;21.20;99.90;;;;;;5033672;28;20455;-70
2023/07/18 11:21:04;;;;;;;1.20;1.10;;;21.20;99.90;;;;;;5033758;28;20411;-70
2023/07/18 11:23:34;;;;;;;1.43;1.33;;;21.20;99.90;;;;;;5033744;28;20412;-70
2023/07/18 11:26:08;;;;;;;1.60;1.33;;;21.30;99.90;;;;;;5033912;28;20434;-70
2023/07/18 11:28:34;;;;;;;1.57;1.00;;;21.00;99.90;;;;;;5034079;28;20437;-70
2023/07/18 11:31:00;;;;;;;1.33;1.17;;;21.20;99.90;;;;;;5033407;28;20850;-70
2023/07/18 11:33:29;;;;;;;1.17;1.17;;;21.30;99.90;;;;;;5033738;28;20403;-70
2023/07/18 11:35:56;;;;;;;1.63;1.53;;;21.30;99.90;;;;;;5033810;28;20183;-70
2023/07/18 11:38:24;;;;;;;5.80;2.03;;;21.30;99.90;;;;;;5015656;28;20799;-70
2023/07/18 11:40:50;;;;;;;1.57;1.47;;;21.40;99.90;;;;;;5033532;28;20435;-70
2023/07/18 11:43:18;;;;;;;1.13;1.13;;;21.70;99.90;;;;;;5033522;28;20953;-70
2023/07/18 11:45:44;;;;;;;0.70;0.70;;;22.10;99.90;;;;;;5033524;28;20904;-70
2023/07/18 11:48:10;;;;;;;0.93;0.90;;;22.40;99.90;;;;;;5033096;28;20432;-70
2023/07/18 11:50:35;;;;;;;2.10;2.00;;;23.10;99.90;;;;;;5033639;28;20412;-70
2023/07/18 11:53:03;;;;;;;2.00;1.90;;;22.90;99.90;;;;;;5033245;28;20410;-70
2023/07/18 11:55:30;;;;;;;2.97;1.40;;;22.80;99.90;;;;;;5015634;28;20269;-71
2023/07/18 11:57:57;;;;;;;1.27;1.00;;;22.60;99.90;;;;;;5033504;28;20433;-70
2023/07/18 12:00:23;;;;;;;1.20;1.10;;;;;;;;;;5033303;28;20397;-70
2023/07/18 12:02:49;;;;;;;1.60;1.17;;;22.50;99.90;;;;;;5033224;28;20440;-70
2023/07/18 12:05:15;;;;;;;1.13;1.03;;;22.50;99.90;;;;;;5033404;28;20830;-70
2023/07/18 12:07:44;;;;;;;3.53;3.23;;;22.90;99.90;;;;;;5033268;28;20194;-70
2023/07/18 12:10:10;;;;;;;2.03;1.53;;;23.10;99.90;;;;;;5033246;28;20493;-70
2023/07/18 12:12:41;;;;;;;1.20;1.20;;;23.30;99.90;;;;;;5032987;28;20453;-70
2023/07/18 12:15:08;;;;;;;1.90;1.40;;;23.20;99.90;;;;;;5015538;28;20493;-70
2023/07/18 12:17:34;;;;;;;1.97;1.60;;;23.00;99.90;;;;;;5032908;28;20457;-70
2023/07/18 12:20:00;;;;;;;2.57;1.63;;;22.60;99.90;;;;;;5033111;28;20402;-70
2023/07/18 12:22:26;;;;;;;1.33;1.23;;;22.30;99.90;;;;;;5032895;28;20426;-70
2023/07/18 12:24:52;;;;;;;1.30;0.80;;;22.00;99.90;;;;;;5033223;28;20524;-70
2023/07/18 12:27:17;;;;;;;1.80;1.60;;;21.90;99.90;;;;;;5032998;28;20198;-70
2023/07/18 12:29:44;;;;;;;0.67;0.67;;;21.80;99.90;;;;;;5033023;28;20699;-70
2023/07/18 12:32:10;;;;;;;2.73;1.93;;;21.70;99.90;;;;;;5032777;28;20694;-70
2023/07/18 12:34:39;;;;;;;1.73;1.47;;;21.90;99.90;;;;;;5033206;28;20417;-70
2023/07/18 12:37:05;;;;;;;0.97;0.97;;;22.40;99.90;;;;;;5032904;28;20187;-70
2023/07/18 12:39:30;;;;;;;3.53;1.33;;;22.50;99.90;;;;;;5033100;28;20409;-70
2023/07/18 12:41:57;;;;;;;4.13;2.17;;;23.00;99.90;;;;;;5014975;28;20179;-70
2023/07/18 12:44:40;;;;;;;1.00;1.00;;;23.20;99.90;;;;;;5032998;28;20405;-70
2023/07/18 12:47:06;;;;;;;1.27;1.17;;;23.70;99.90;;;;;;5032947;28;20507;-70
2023/07/18 12:49:32;;;;;;;1.27;1.17;;;23.70;99.90;;;;;;5032808;28;20413;-70